sensor_id;sensor_type;location;lat;lon;timestamp;P1;durP1;ratioP1;P2;durP2;ratioP2
29906;SDS011;16776;50.958;10.994;2022-12-07T00:01:12;1.75;;;1.38;;
29906;SDS011;16776;50.958;10.994;2022-12-07T00:03:41;1.45;;;1.35;;
29906;SDS011;16776;50.958;10.994;2022-12-07T00:06:09;1.42;;;1.23;;
29906;SDS011;16776;50.958;10.994;2022-12-07T00:08:41;1.40;;;1.30;;
29906;SDS011;16776;50.958;10.994;2022-12-07T00:11:08;1.20;;;1.10;;
29906;SDS011;16776;50.958;10.994;2022-12-07T00:13:36;1.33;;;1.02;;
29906;SDS011;16776;50.958;10.994;2022-12-07T00:16:05;1.10;;;1.00;;
29906;SDS011;16776;50.958;10.994;2022-12-07T00:18:33;1.90;;;1.13;;
29906;SDS011;16776;50.958;10.994;2022-12-07T00:21:00;1.38;;;0.95;;
29906;SDS011;16776;50.958;10.994;2022-12-07T00:23:29;1.20;;;1.00;;
29906;SDS011;16776;50.958;10.994;2022-12-07T00:26:02;0.98;;;0.77;;
29906;SDS011;16776;50.958;10.994;2022-12-07T00:28:32;1.55;;;1.13;;
29906;SDS011;16776;50.958;10.994;2022-12-07T00:31:00;0.95;;;0.80;;
29906;SDS011;16776;50.958;10.994;2022-12-07T00:33:28;1.75;;;0.90;;
29906;SDS011;16776;50.958;10.994;2022-12-07T00:35:55;1.55;;;1.20;;
29906;SDS011;16776;50.958;10.994;2022-12-07T00:38:22;0.98;;;0.88;;
29906;SDS011;16776;50.958;10.994;2022-12-07T00:40:53;0.70;;;0.70;;
29906;SDS011;16776;50.958;10.994;2022-12-07T00:43:22;0.80;;;0.80;;
29906;SDS011;16776;50.958;10.994;2022-12-07T00:45:48;1.13;;;0.70;;
29906;SDS011;16776;50.958;10.994;2022-12-07T00:48:15;1.42;;;0.80;;
29906;SDS011;16776;50.958;10.994;2022-12-07T00:50:41;0.88;;;0.88;;
29906;SDS011;16776;50.958;10.994;2022-12-07T00:53:08;1.05;;;0.68;;
29906;SDS011;16776;50.958;10.994;2022-12-07T00:55:35;0.82;;;0.82;;
29906;SDS011;16776;50.958;10.994;2022-12-07T00:58:02;1.33;;;1.02;;
29906;SDS011;16776;50.958;10.994;2022-12-07T01:00:30;0.90;;;0.63;;
29906;SDS011;16776;50.958;10.994;2022-12-07T01:02:56;0.60;;;0.60;;
29906;SDS011;16776;50.958;10.994;2022-12-07T01:05:23;1.42;;;0.90;;
29906;SDS011;16776;50.958;10.994;2022-12-07T01:07:50;0.80;;;0.80;;
29906;SDS011;16776;50.958;10.994;2022-12-07T01:10:16;1.05;;;0.80;;
29906;SDS011;16776;50.958;10.994;2022-12-07T01:12:43;1.10;;;0.85;;
29906;SDS011;16776;50.958;10.994;2022-12-07T01:15:10;0.75;;;0.70;;
29906;SDS011;16776;50.958;10.994;2022-12-07T01:17:38;1.55;;;1.00;;
29906;SDS011;16776;50.958;10.994;2022-12-07T01:20:05;1.05;;;0.80;;
29906;SDS011;16776;50.958;10.994;2022-12-07T01:22:36;0.80;;;0.80;;
29906;SDS011;16776;50.958;10.994;2022-12-07T01:25:03;0.95;;;0.77;;
29906;SDS011;16776;50.958;10.994;2022-12-07T01:27:31;0.82;;;0.70;;
29906;SDS011;16776;50.958;10.994;2022-12-07T01:29:58;0.80;;;0.75;;
29906;SDS011;16776;50.958;10.994;2022-12-07T01:32:25;0.98;;;0.68;;
29906;SDS011;16776;50.958;10.994;2022-12-07T01:34:53;1.30;;;1.00;;
29906;SDS011;16776;50.958;10.994;2022-12-07T01:37:22;1.92;;;1.25;;
29906;SDS011;16776;50.958;10.994;2022-12-07T01:39:49;1.70;;;1.13;;
29906;SDS011;16776;50.958;10.994;2022-12-07T01:42:16;1.30;;;1.20;;
29906;SDS011;16776;50.958;10.994;2022-12-07T01:47:47;1.50;;;0.98;;
29906;SDS011;16776;50.958;10.994;2022-12-07T01:50:23;2.00;;;1.48;;
29906;SDS011;16776;50.958;10.994;2022-12-07T01:52:53;2.05;;;1.20;;
29906;SDS011;16776;50.958;10.994;2022-12-07T01:55:23;1.27;;;1.05;;
29906;SDS011;16776;50.958;10.994;2022-12-07T01:57:53;2.47;;;1.05;;
29906;SDS011;16776;50.958;10.994;2022-12-07T02:00:22;1.50;;;1.40;;
29906;SDS011;16776;50.958;10.994;2022-12-07T02:02:51;2.40;;;1.38;;
29906;SDS011;16776;50.958;10.994;2022-12-07T02:05:24;0.70;;;0.70;;
29906;SDS011;16776;50.958;10.994;2022-12-07T02:07:51;1.88;;;1.30;;
29906;SDS011;16776;50.958;10.994;2022-12-07T02:10:21;2.50;;;1.30;;
29906;SDS011;16776;50.958;10.994;2022-12-07T02:12:50;2.10;;;1.50;;
29906;SDS011;16776;50.958;10.994;2022-12-07T02:15:20;2.60;;;1.80;;
29906;SDS011;16776;50.958;10.994;2022-12-07T02:17:53;2.17;;;1.50;;
29906;SDS011;16776;50.958;10.994;2022-12-07T02:20:29;2.15;;;1.45;;
29906;SDS011;16776;50.958;10.994;2022-12-07T02:26:02;2.53;;;1.55;;
29906;SDS011;16776;50.958;10.994;2022-12-07T02:28:51;3.20;;;1.77;;
29906;SDS011;16776;50.958;10.994;2022-12-07T02:31:27;3.05;;;1.90;;
29906;SDS011;16776;50.958;10.994;2022-12-07T02:33:57;3.00;;;1.90;;
29906;SDS011;16776;50.958;10.994;2022-12-07T02:36:34;3.03;;;1.85;;
29906;SDS011;16776;50.958;10.994;2022-12-07T02:39:06;3.10;;;1.95;;
29906;SDS011;16776;50.958;10.994;2022-12-07T02:41:42;1.65;;;1.55;;
29906;SDS011;16776;50.958;10.994;2022-12-07T02:44:17;2.17;;;1.88;;
29906;SDS011;16776;50.958;10.994;2022-12-07T02:46:48;3.97;;;2.53;;
29906;SDS011;16776;50.958;10.994;2022-12-07T02:49:19;3.05;;;2.13;;
29906;SDS011;16776;50.958;10.994;2022-12-07T02:51:48;2.85;;;2.25;;
29906;SDS011;16776;50.958;10.994;2022-12-07T02:54:16;3.00;;;2.30;;
29906;SDS011;16776;50.958;10.994;2022-12-07T02:56:48;2.78;;;2.22;;
29906;SDS011;16776;50.958;10.994;2022-12-07T02:59:21;2.25;;;1.80;;
29906;SDS011;16776;50.958;10.994;2022-12-07T03:01:58;3.25;;;2.28;;
29906;SDS011;16776;50.958;10.994;2022-12-07T03:04:41;2.60;;;2.20;;
29906;SDS011;16776;50.958;10.994;2022-12-07T03:07:18;3.67;;;2.05;;
29906;SDS011;16776;50.958;10.994;2022-12-07T03:10:01;3.35;;;2.53;;
29906;SDS011;16776;50.958;10.994;2022-12-07T03:12:35;2.35;;;1.70;;
29906;SDS011;16776;50.958;10.994;2022-12-07T03:15:10;3.50;;;2.20;;
29906;SDS011;16776;50.958;10.994;2022-12-07T03:17:41;2.05;;;1.75;;
29906;SDS011;16776;50.958;10.994;2022-12-07T03:20:13;3.22;;;2.13;;
29906;SDS011;16776;50.958;10.994;2022-12-07T03:22:45;2.70;;;1.88;;
29906;SDS011;16776;50.958;10.994;2022-12-07T03:25:16;3.20;;;2.15;;
29906;SDS011;16776;50.958;10.994;2022-12-07T03:27:44;2.83;;;2.08;;
29906;SDS011;16776;50.958;10.994;2022-12-07T03:30:19;2.83;;;2.30;;
29906;SDS011;16776;50.958;10.994;2022-12-07T03:32:48;2.92;;;2.30;;
29906;SDS011;16776;50.958;10.994;2022-12-07T03:35:20;2.72;;;1.92;;
29906;SDS011;16776;50.958;10.994;2022-12-07T03:37:52;2.38;;;2.00;;
29906;SDS011;16776;50.958;10.994;2022-12-07T03:40:26;3.08;;;1.95;;
29906;SDS011;16776;50.958;10.994;2022-12-07T03:43:01;2.83;;;2.20;;
29906;SDS011;16776;50.958;10.994;2022-12-07T03:45:32;2.15;;;1.95;;
29906;SDS011;16776;50.958;10.994;2022-12-07T03:48:06;2.85;;;2.10;;
29906;SDS011;16776;50.958;10.994;2022-12-07T03:50:43;3.60;;;2.40;;
29906;SDS011;16776;50.958;10.994;2022-12-07T03:53:18;2.72;;;2.00;;
29906;SDS011;16776;50.958;10.994;2022-12-07T03:55:51;2.67;;;2.15;;
29906;SDS011;16776;50.958;10.994;2022-12-07T03:58:20;3.60;;;2.22;;
29906;SDS011;16776;50.958;10.994;2022-12-07T04:00:50;1.88;;;1.73;;
29906;SDS011;16776;50.958;10.994;2022-12-07T04:03:17;3.38;;;2.55;;
29906;SDS011;16776;50.958;10.994;2022-12-07T04:05:46;2.33;;;1.75;;
29906;SDS011;16776;50.958;10.994;2022-12-07T04:08:13;2.33;;;1.65;;
29906;SDS011;16776;50.958;10.994;2022-12-07T04:10:39;1.85;;;1.65;;
29906;SDS011;16776;50.958;10.994;2022-12-07T04:13:06;2.15;;;1.95;;
29906;SDS011;16776;50.958;10.994;2022-12-07T04:15:32;3.05;;;2.03;;
29906;SDS011;16776;50.958;10.994;2022-12-07T04:18:00;2.22;;;1.90;;
29906;SDS011;16776;50.958;10.994;2022-12-07T04:20:27;1.70;;;1.30;;
29906;SDS011;16776;50.958;10.994;2022-12-07T04:22:53;1.65;;;1.40;;
29906;SDS011;16776;50.958;10.994;2022-12-07T04:25:20;2.50;;;1.48;;
29906;SDS011;16776;50.958;10.994;2022-12-07T04:27:47;1.95;;;1.67;;
29906;SDS011;16776;50.958;10.994;2022-12-07T04:30:13;2.00;;;1.75;;
29906;SDS011;16776;50.958;10.994;2022-12-07T04:32:40;1.55;;;1.33;;
29906;SDS011;16776;50.958;10.994;2022-12-07T04:35:08;1.80;;;1.38;;
29906;SDS011;16776;50.958;10.994;2022-12-07T04:37:35;2.25;;;1.63;;
29906;SDS011;16776;50.958;10.994;2022-12-07T04:40:04;2.40;;;1.45;;
29906;SDS011;16776;50.958;10.994;2022-12-07T04:42:38;2.53;;;1.70;;
29906;SDS011;16776;50.958;10.994;2022-12-07T04:45:10;1.83;;;1.60;;
29906;SDS011;16776;50.958;10.994;2022-12-07T04:47:37;1.98;;;1.35;;
29906;SDS011;16776;50.958;10.994;2022-12-07T04:50:04;2.47;;;1.40;;
29906;SDS011;16776;50.958;10.994;2022-12-07T04:52:33;2.03;;;1.20;;
29906;SDS011;16776;50.958;10.994;2022-12-07T04:55:00;1.85;;;1.20;;
29906;SDS011;16776;50.958;10.994;2022-12-07T04:57:26;1.88;;;1.65;;
29906;SDS011;16776;50.958;10.994;2022-12-07T04:59:53;3.00;;;2.13;;
29906;SDS011;16776;50.958;10.994;2022-12-07T05:02:19;2.92;;;2.00;;
29906;SDS011;16776;50.958;10.994;2022-12-07T05:04:46;3.47;;;2.50;;
29906;SDS011;16776;50.958;10.994;2022-12-07T05:07:12;4.25;;;2.58;;
29906;SDS011;16776;50.958;10.994;2022-12-07T05:09:40;4.45;;;3.00;;
29906;SDS011;16776;50.958;10.994;2022-12-07T05:12:07;4.90;;;3.40;;
29906;SDS011;16776;50.958;10.994;2022-12-07T05:14:43;3.90;;;2.78;;
29906;SDS011;16776;50.958;10.994;2022-12-07T05:17:11;4.50;;;3.00;;
29906;SDS011;16776;50.958;10.994;2022-12-07T05:19:38;3.03;;;2.38;;
29906;SDS011;16776;50.958;10.994;2022-12-07T05:22:05;3.22;;;2.72;;
29906;SDS011;16776;50.958;10.994;2022-12-07T05:24:31;3.40;;;2.58;;
29906;SDS011;16776;50.958;10.994;2022-12-07T05:26:59;3.72;;;2.78;;
29906;SDS011;16776;50.958;10.994;2022-12-07T05:29:26;4.20;;;2.50;;
29906;SDS011;16776;50.958;10.994;2022-12-07T05:31:52;4.18;;;2.58;;
29906;SDS011;16776;50.958;10.994;2022-12-07T05:34:19;2.72;;;2.20;;
29906;SDS011;16776;50.958;10.994;2022-12-07T05:36:46;3.05;;;1.40;;
29906;SDS011;16776;50.958;10.994;2022-12-07T05:39:13;2.38;;;1.70;;
29906;SDS011;16776;50.958;10.994;2022-12-07T05:41:44;2.97;;;2.47;;
29906;SDS011;16776;50.958;10.994;2022-12-07T05:44:33;3.17;;;2.22;;
29906;SDS011;16776;50.958;10.994;2022-12-07T05:46:59;4.15;;;2.58;;
29906;SDS011;16776;50.958;10.994;2022-12-07T05:49:26;2.45;;;1.95;;
29906;SDS011;16776;50.958;10.994;2022-12-07T05:51:52;2.92;;;2.42;;
29906;SDS011;16776;50.958;10.994;2022-12-07T05:54:24;2.78;;;2.10;;
29906;SDS011;16776;50.958;10.994;2022-12-07T05:56:51;3.40;;;2.20;;
29906;SDS011;16776;50.958;10.994;2022-12-07T05:59:18;3.83;;;2.25;;
29906;SDS011;16776;50.958;10.994;2022-12-07T06:01:55;3.00;;;2.40;;
29906;SDS011;16776;50.958;10.994;2022-12-07T06:04:23;3.60;;;2.42;;
29906;SDS011;16776;50.958;10.994;2022-12-07T06:06:51;3.40;;;2.35;;
29906;SDS011;16776;50.958;10.994;2022-12-07T06:09:18;3.50;;;2.25;;
29906;SDS011;16776;50.958;10.994;2022-12-07T06:11:45;3.85;;;2.60;;
29906;SDS011;16776;50.958;10.994;2022-12-07T06:14:29;3.28;;;2.42;;
29906;SDS011;16776;50.958;10.994;2022-12-07T06:16:57;2.88;;;2.30;;
29906;SDS011;16776;50.958;10.994;2022-12-07T06:19:27;4.70;;;2.40;;
29906;SDS011;16776;50.958;10.994;2022-12-07T06:21:54;3.50;;;2.63;;
29906;SDS011;16776;50.958;10.994;2022-12-07T06:24:24;3.30;;;2.10;;
29906;SDS011;16776;50.958;10.994;2022-12-07T06:26:51;3.05;;;2.20;;
29906;SDS011;16776;50.958;10.994;2022-12-07T06:29:17;3.83;;;2.95;;
29906;SDS011;16776;50.958;10.994;2022-12-07T06:31:44;4.07;;;2.80;;
29906;SDS011;16776;50.958;10.994;2022-12-07T06:34:13;3.50;;;2.47;;
29906;SDS011;16776;50.958;10.994;2022-12-07T06:36:43;2.50;;;1.73;;
29906;SDS011;16776;50.958;10.994;2022-12-07T06:39:10;4.15;;;2.80;;
29906;SDS011;16776;50.958;10.994;2022-12-07T06:41:38;1.77;;;1.67;;
29906;SDS011;16776;50.958;10.994;2022-12-07T06:44:05;3.72;;;2.38;;
29906;SDS011;16776;50.958;10.994;2022-12-07T06:46:33;4.45;;;2.58;;
29906;SDS011;16776;50.958;10.994;2022-12-07T06:49:01;3.80;;;2.63;;
29906;SDS011;16776;50.958;10.994;2022-12-07T06:51:34;2.83;;;2.30;;
29906;SDS011;16776;50.958;10.994;2022-12-07T06:54:01;3.95;;;2.80;;
29906;SDS011;16776;50.958;10.994;2022-12-07T06:56:28;3.38;;;2.78;;
29906;SDS011;16776;50.958;10.994;2022-12-07T06:58:57;3.70;;;2.70;;
29906;SDS011;16776;50.958;10.994;2022-12-07T07:01:26;4.78;;;3.47;;
29906;SDS011;16776;50.958;10.994;2022-12-07T07:03:52;6.00;;;3.10;;
29906;SDS011;16776;50.958;10.994;2022-12-07T07:06:20;2.97;;;2.63;;
29906;SDS011;16776;50.958;10.994;2022-12-07T07:08:49;3.17;;;2.38;;
29906;SDS011;16776;50.958;10.994;2022-12-07T07:11:16;3.28;;;2.42;;
29906;SDS011;16776;50.958;10.994;2022-12-07T07:13:42;4.22;;;2.78;;
29906;SDS011;16776;50.958;10.994;2022-12-07T07:16:10;5.20;;;3.08;;
29906;SDS011;16776;50.958;10.994;2022-12-07T07:18:37;4.00;;;2.92;;
29906;SDS011;16776;50.958;10.994;2022-12-07T07:21:04;3.28;;;2.42;;
29906;SDS011;16776;50.958;10.994;2022-12-07T07:23:34;4.85;;;3.15;;
29906;SDS011;16776;50.958;10.994;2022-12-07T07:26:04;5.57;;;3.65;;
29906;SDS011;16776;50.958;10.994;2022-12-07T07:28:31;3.75;;;3.00;;
29906;SDS011;16776;50.958;10.994;2022-12-07T07:30:58;4.03;;;2.38;;
29906;SDS011;16776;50.958;10.994;2022-12-07T07:33:28;2.83;;;2.35;;
29906;SDS011;16776;50.958;10.994;2022-12-07T07:35:55;4.30;;;3.03;;
29906;SDS011;16776;50.958;10.994;2022-12-07T07:38:21;4.22;;;2.55;;
29906;SDS011;16776;50.958;10.994;2022-12-07T07:40:53;2.60;;;2.10;;
29906;SDS011;16776;50.958;10.994;2022-12-07T07:43:22;3.42;;;2.63;;
29906;SDS011;16776;50.958;10.994;2022-12-07T07:45:49;3.63;;;2.47;;
29906;SDS011;16776;50.958;10.994;2022-12-07T07:48:16;3.63;;;2.72;;
29906;SDS011;16776;50.958;10.994;2022-12-07T07:50:42;4.10;;;2.47;;
29906;SDS011;16776;50.958;10.994;2022-12-07T07:53:09;3.30;;;2.50;;
29906;SDS011;16776;50.958;10.994;2022-12-07T07:55:35;3.65;;;2.78;;
29906;SDS011;16776;50.958;10.994;2022-12-07T07:58:04;4.53;;;2.85;;
29906;SDS011;16776;50.958;10.994;2022-12-07T08:00:38;6.55;;;3.42;;
29906;SDS011;16776;50.958;10.994;2022-12-07T08:03:07;3.45;;;2.50;;
29906;SDS011;16776;50.958;10.994;2022-12-07T08:05:34;2.70;;;2.28;;
29906;SDS011;16776;50.958;10.994;2022-12-07T08:08:03;3.20;;;2.13;;
29906;SDS011;16776;50.958;10.994;2022-12-07T08:10:30;3.38;;;2.60;;
29906;SDS011;16776;50.958;10.994;2022-12-07T08:12:57;4.28;;;2.20;;
29906;SDS011;16776;50.958;10.994;2022-12-07T08:15:39;3.13;;;2.42;;
29906;SDS011;16776;50.958;10.994;2022-12-07T08:18:07;3.33;;;2.13;;
29906;SDS011;16776;50.958;10.994;2022-12-07T08:20:34;2.97;;;2.20;;
29906;SDS011;16776;50.958;10.994;2022-12-07T08:23:02;2.63;;;1.95;;
29906;SDS011;16776;50.958;10.994;2022-12-07T08:25:32;2.92;;;2.08;;
29906;SDS011;16776;50.958;10.994;2022-12-07T08:28:00;2.58;;;1.80;;
29906;SDS011;16776;50.958;10.994;2022-12-07T08:30:27;3.85;;;2.38;;
29906;SDS011;16776;50.958;10.994;2022-12-07T08:32:56;2.63;;;2.05;;
29906;SDS011;16776;50.958;10.994;2022-12-07T08:35:23;2.70;;;2.35;;
29906;SDS011;16776;50.958;10.994;2022-12-07T08:37:51;3.20;;;2.40;;
29906;SDS011;16776;50.958;10.994;2022-12-07T08:40:17;2.47;;;1.92;;
29906;SDS011;16776;50.958;10.994;2022-12-07T08:42:48;2.33;;;1.65;;
29906;SDS011;16776;50.958;10.994;2022-12-07T08:45:16;3.20;;;1.90;;
29906;SDS011;16776;50.958;10.994;2022-12-07T08:47:44;4.00;;;2.42;;
29906;SDS011;16776;50.958;10.994;2022-12-07T08:50:16;2.22;;;1.77;;
29906;SDS011;16776;50.958;10.994;2022-12-07T08:52:43;2.88;;;1.55;;
29906;SDS011;16776;50.958;10.994;2022-12-07T08:55:10;3.45;;;1.80;;
29906;SDS011;16776;50.958;10.994;2022-12-07T08:57:38;2.50;;;2.00;;
29906;SDS011;16776;50.958;10.994;2022-12-07T09:00:08;2.13;;;1.60;;
29906;SDS011;16776;50.958;10.994;2022-12-07T09:02:38;1.65;;;1.23;;
29906;SDS011;16776;50.958;10.994;2022-12-07T09:05:12;1.38;;;1.20;;
29906;SDS011;16776;50.958;10.994;2022-12-07T09:07:41;1.48;;;1.38;;
29906;SDS011;16776;50.958;10.994;2022-12-07T09:10:09;1.27;;;1.17;;
29906;SDS011;16776;50.958;10.994;2022-12-07T09:12:36;1.95;;;1.38;;
29906;SDS011;16776;50.958;10.994;2022-12-07T09:15:08;2.67;;;1.35;;
29906;SDS011;16776;50.958;10.994;2022-12-07T09:17:38;1.60;;;1.50;;
29906;SDS011;16776;50.958;10.994;2022-12-07T09:20:05;2.47;;;1.75;;
29906;SDS011;16776;50.958;10.994;2022-12-07T09:22:35;1.45;;;1.17;;
29906;SDS011;16776;50.958;10.994;2022-12-07T09:25:04;2.38;;;1.23;;
29906;SDS011;16776;50.958;10.994;2022-12-07T09:27:31;3.08;;;1.60;;
29906;SDS011;16776;50.958;10.994;2022-12-07T09:29:58;2.33;;;1.40;;
29906;SDS011;16776;50.958;10.994;2022-12-07T09:32:24;2.10;;;1.30;;
29906;SDS011;16776;50.958;10.994;2022-12-07T09:34:51;2.00;;;1.30;;
29906;SDS011;16776;50.958;10.994;2022-12-07T09:37:18;1.52;;;1.30;;
29906;SDS011;16776;50.958;10.994;2022-12-07T09:39:44;1.20;;;1.10;;
29906;SDS011;16776;50.958;10.994;2022-12-07T09:42:13;1.92;;;1.30;;
29906;SDS011;16776;50.958;10.994;2022-12-07T09:44:52;3.17;;;1.48;;
29906;SDS011;16776;50.958;10.994;2022-12-07T09:47:18;1.60;;;1.42;;
29906;SDS011;16776;50.958;10.994;2022-12-07T09:49:46;2.30;;;1.40;;
29906;SDS011;16776;50.958;10.994;2022-12-07T09:52:17;2.40;;;1.65;;
29906;SDS011;16776;50.958;10.994;2022-12-07T09:54:49;4.40;;;1.63;;
29906;SDS011;16776;50.958;10.994;2022-12-07T09:57:18;1.80;;;1.45;;
29906;SDS011;16776;50.958;10.994;2022-12-07T09:59:51;1.88;;;1.40;;
29906;SDS011;16776;50.958;10.994;2022-12-07T10:02:23;3.55;;;1.67;;
29906;SDS011;16776;50.958;10.994;2022-12-07T10:05:00;1.40;;;1.30;;
29906;SDS011;16776;50.958;10.994;2022-12-07T10:07:29;2.42;;;1.48;;
29906;SDS011;16776;50.958;10.994;2022-12-07T10:09:56;1.88;;;1.50;;
29906;SDS011;16776;50.958;10.994;2022-12-07T10:12:24;1.42;;;1.33;;
29906;SDS011;16776;50.958;10.994;2022-12-07T10:14:54;2.75;;;1.17;;
29906;SDS011;16776;50.958;10.994;2022-12-07T10:17:29;2.28;;;1.42;;
29906;SDS011;16776;50.958;10.994;2022-12-07T10:20:15;1.23;;;1.15;;
29906;SDS011;16776;50.958;10.994;2022-12-07T10:22:54;2.00;;;1.23;;
29906;SDS011;16776;50.958;10.994;2022-12-07T10:25:23;0.82;;;0.70;;
29906;SDS011;16776;50.958;10.994;2022-12-07T10:28:01;0.80;;;0.80;;
29906;SDS011;16776;50.958;10.994;2022-12-07T10:30:45;2.60;;;1.17;;
29906;SDS011;16776;50.958;10.994;2022-12-07T10:33:27;1.40;;;1.10;;
29906;SDS011;16776;50.958;10.994;2022-12-07T10:35:59;1.17;;;0.75;;
29906;SDS011;16776;50.958;10.994;2022-12-07T10:38:35;1.30;;;0.90;;
29906;SDS011;16776;50.958;10.994;2022-12-07T10:41:11;1.05;;;0.68;;
29906;SDS011;16776;50.958;10.994;2022-12-07T10:43:52;1.90;;;1.10;;
29906;SDS011;16776;50.958;10.994;2022-12-07T10:52:41;0.77;;;0.70;;
29906;SDS011;16776;50.958;10.994;2022-12-07T10:55:22;1.00;;;0.77;;
29906;SDS011;16776;50.958;10.994;2022-12-07T10:57:59;1.80;;;1.05;;
29906;SDS011;16776;50.958;10.994;2022-12-07T11:00:44;2.05;;;1.15;;
29906;SDS011;16776;50.958;10.994;2022-12-07T11:06:24;3.00;;;1.23;;
29906;SDS011;16776;50.958;10.994;2022-12-07T11:09:03;1.00;;;0.75;;
29906;SDS011;16776;50.958;10.994;2022-12-07T11:11:43;0.73;;;0.73;;
29906;SDS011;16776;50.958;10.994;2022-12-07T11:14:19;1.40;;;0.50;;
29906;SDS011;16776;50.958;10.994;2022-12-07T11:16:56;1.02;;;0.90;;
29906;SDS011;16776;50.958;10.994;2022-12-07T11:19:32;1.55;;;0.82;;
29906;SDS011;16776;50.958;10.994;2022-12-07T11:22:12;0.85;;;0.65;;
29906;SDS011;16776;50.958;10.994;2022-12-07T11:24:47;0.82;;;0.82;;
29906;SDS011;16776;50.958;10.994;2022-12-07T11:27:21;2.28;;;1.00;;
29906;SDS011;16776;50.958;10.994;2022-12-07T11:30:13;1.40;;;0.93;;
29906;SDS011;16776;50.958;10.994;2022-12-07T11:32:51;1.77;;;0.90;;
29906;SDS011;16776;50.958;10.994;2022-12-07T11:35:31;0.90;;;0.90;;
29906;SDS011;16776;50.958;10.994;2022-12-07T11:38:08;1.88;;;0.80;;
29906;SDS011;16776;50.958;10.994;2022-12-07T11:40:38;1.52;;;1.15;;
29906;SDS011;16776;50.958;10.994;2022-12-07T11:43:12;1.20;;;0.90;;
29906;SDS011;16776;50.958;10.994;2022-12-07T11:45:45;1.45;;;1.10;;
29906;SDS011;16776;50.958;10.994;2022-12-07T11:48:21;2.03;;;1.00;;
29906;SDS011;16776;50.958;10.994;2022-12-07T11:50:56;2.42;;;0.88;;
29906;SDS011;16776;50.958;10.994;2022-12-07T11:53:26;1.45;;;1.00;;
29906;SDS011;16776;50.958;10.994;2022-12-07T11:56:00;0.57;;;0.52;;
29906;SDS011;16776;50.958;10.994;2022-12-07T11:58:40;2.35;;;0.85;;
29906;SDS011;16776;50.958;10.994;2022-12-07T12:01:25;1.38;;;0.70;;
29906;SDS011;16776;50.958;10.994;2022-12-07T12:04:04;0.63;;;0.60;;
29906;SDS011;16776;50.958;10.994;2022-12-07T12:06:47;1.15;;;0.70;;
29906;SDS011;16776;50.958;10.994;2022-12-07T12:09:15;1.02;;;0.63;;
29906;SDS011;16776;50.958;10.994;2022-12-07T12:11:50;0.57;;;0.47;;
29906;SDS011;16776;50.958;10.994;2022-12-07T12:14:39;3.13;;;0.68;;
29906;SDS011;16776;50.958;10.994;2022-12-07T12:17:22;0.70;;;0.65;;
29906;SDS011;16776;50.958;10.994;2022-12-07T12:20:20;2.55;;;0.93;;
29906;SDS011;16776;50.958;10.994;2022-12-07T12:22:55;1.25;;;0.70;;
29906;SDS011;16776;50.958;10.994;2022-12-07T12:25:27;0.45;;;0.43;;
29906;SDS011;16776;50.958;10.994;2022-12-07T12:27:57;0.40;;;0.40;;
29906;SDS011;16776;50.958;10.994;2022-12-07T12:30:28;1.25;;;0.52;;
29906;SDS011;16776;50.958;10.994;2022-12-07T12:33:01;0.40;;;0.40;;
29906;SDS011;16776;50.958;10.994;2022-12-07T12:35:32;1.80;;;0.75;;
29906;SDS011;16776;50.958;10.994;2022-12-07T12:40:55;0.50;;;0.43;;
29906;SDS011;16776;50.958;10.994;2022-12-07T12:43:48;0.50;;;0.50;;
29906;SDS011;16776;50.958;10.994;2022-12-07T12:55:53;0.45;;;0.45;;
29906;SDS011;16776;50.958;10.994;2022-12-07T12:58:50;0.90;;;0.47;;
29906;SDS011;16776;50.958;10.994;2022-12-07T13:01:55;0.55;;;0.45;;
29906;SDS011;16776;50.958;10.994;2022-12-07T13:04:40;1.40;;;0.40;;
29906;SDS011;16776;50.958;10.994;2022-12-07T13:10:35;1.40;;;0.80;;
29906;SDS011;16776;50.958;10.994;2022-12-07T13:13:25;0.80;;;0.47;;
29906;SDS011;16776;50.958;10.994;2022-12-07T13:18:56;2.40;;;0.70;;
29906;SDS011;16776;50.958;10.994;2022-12-07T13:21:40;0.55;;;0.40;;
29906;SDS011;16776;50.958;10.994;2022-12-07T13:24:08;0.63;;;0.63;;
29906;SDS011;16776;50.958;10.994;2022-12-07T13:26:41;1.75;;;0.50;;
29906;SDS011;16776;50.958;10.994;2022-12-07T13:29:11;0.40;;;0.40;;
29906;SDS011;16776;50.958;10.994;2022-12-07T13:31:40;0.30;;;0.30;;
29906;SDS011;16776;50.958;10.994;2022-12-07T13:37:04;0.45;;;0.43;;
29906;SDS011;16776;50.958;10.994;2022-12-07T13:39:44;0.30;;;0.30;;
29906;SDS011;16776;50.958;10.994;2022-12-07T13:42:19;0.73;;;0.30;;
29906;SDS011;16776;50.958;10.994;2022-12-07T13:44:51;1.05;;;0.40;;
29906;SDS011;16776;50.958;10.994;2022-12-07T13:47:19;1.48;;;0.40;;
29906;SDS011;16776;50.958;10.994;2022-12-07T13:49:53;0.63;;;0.35;;
29906;SDS011;16776;50.958;10.994;2022-12-07T13:52:23;0.52;;;0.30;;
29906;SDS011;16776;50.958;10.994;2022-12-07T13:54:55;0.65;;;0.20;;
29906;SDS011;16776;50.958;10.994;2022-12-07T13:57:27;0.77;;;0.28;;
29906;SDS011;16776;50.958;10.994;2022-12-07T13:59:58;0.30;;;0.22;;
29906;SDS011;16776;50.958;10.994;2022-12-07T14:02:25;0.20;;;0.20;;
29906;SDS011;16776;50.958;10.994;2022-12-07T14:05:05;0.60;;;0.40;;
29906;SDS011;16776;50.958;10.994;2022-12-07T14:07:34;0.68;;;0.35;;
29906;SDS011;16776;50.958;10.994;2022-12-07T14:10:01;0.70;;;0.30;;
29906;SDS011;16776;50.958;10.994;2022-12-07T14:12:32;0.30;;;0.30;;
29906;SDS011;16776;50.958;10.994;2022-12-07T14:15:02;0.70;;;0.30;;
29906;SDS011;16776;50.958;10.994;2022-12-07T14:17:31;0.95;;;0.50;;
29906;SDS011;16776;50.958;10.994;2022-12-07T14:19:58;0.52;;;0.50;;
29906;SDS011;16776;50.958;10.994;2022-12-07T14:22:29;0.68;;;0.45;;
29906;SDS011;16776;50.958;10.994;2022-12-07T14:25:19;0.40;;;0.40;;
29906;SDS011;16776;50.958;10.994;2022-12-07T14:27:54;0.50;;;0.50;;
29906;SDS011;16776;50.958;10.994;2022-12-07T14:30:23;0.50;;;0.50;;
29906;SDS011;16776;50.958;10.994;2022-12-07T14:32:52;1.65;;;0.50;;
29906;SDS011;16776;50.958;10.994;2022-12-07T14:35:20;0.63;;;0.45;;
29906;SDS011;16776;50.958;10.994;2022-12-07T14:37:48;2.80;;;0.70;;
29906;SDS011;16776;50.958;10.994;2022-12-07T14:40:16;0.93;;;0.60;;
29906;SDS011;16776;50.958;10.994;2022-12-07T14:42:44;2.80;;;0.57;;
29906;SDS011;16776;50.958;10.994;2022-12-07T14:45:18;0.60;;;0.60;;
29906;SDS011;16776;50.958;10.994;2022-12-07T14:47:47;0.40;;;0.40;;
29906;SDS011;16776;50.958;10.994;2022-12-07T14:50:15;0.50;;;0.50;;
29906;SDS011;16776;50.958;10.994;2022-12-07T14:52:44;1.95;;;1.00;;
29906;SDS011;16776;50.958;10.994;2022-12-07T14:55:18;1.88;;;0.80;;
29906;SDS011;16776;50.958;10.994;2022-12-07T14:57:52;1.50;;;0.80;;
29906;SDS011;16776;50.958;10.994;2022-12-07T15:00:24;0.93;;;0.70;;
29906;SDS011;16776;50.958;10.994;2022-12-07T15:05:19;1.67;;;0.40;;
29906;SDS011;16776;50.958;10.994;2022-12-07T15:07:53;0.90;;;0.45;;
29906;SDS011;16776;50.958;10.994;2022-12-07T15:10:21;0.75;;;0.50;;
29906;SDS011;16776;50.958;10.994;2022-12-07T15:12:49;0.80;;;0.40;;
29906;SDS011;16776;50.958;10.994;2022-12-07T15:15:16;0.38;;;0.38;;
29906;SDS011;16776;50.958;10.994;2022-12-07T15:17:45;0.30;;;0.30;;
29906;SDS011;16776;50.958;10.994;2022-12-07T15:20:13;1.67;;;0.50;;
29906;SDS011;16776;50.958;10.994;2022-12-07T15:22:41;0.50;;;0.47;;
29906;SDS011;16776;50.958;10.994;2022-12-07T15:25:12;0.47;;;0.38;;
29906;SDS011;16776;50.958;10.994;2022-12-07T15:27:41;1.05;;;0.60;;
29906;SDS011;16776;50.958;10.994;2022-12-07T15:30:08;0.40;;;0.40;;
29906;SDS011;16776;50.958;10.994;2022-12-07T15:32:35;0.95;;;0.90;;
29906;SDS011;16776;50.958;10.994;2022-12-07T15:35:03;0.57;;;0.50;;